createdAt,value
2023-04-15T00:01:52.870Z,22.13
2023-04-15T00:04:20.594Z,22.15
2023-04-15T00:06:53.119Z,22.13
2023-04-15T00:09:20.631Z,22.11
2023-04-15T00:11:47.244Z,22.10
2023-04-15T00:14:13.926Z,22.10
2023-04-15T00:16:40.802Z,22.09
2023-04-15T00:19:07.295Z,22.11
2023-04-15T00:21:34.000Z,22.08
2023-04-15T00:24:01.186Z,22.08
2023-04-15T00:26:27.994Z,22.07
2023-04-15T00:28:54.469Z,22.07
2023-04-15T00:31:21.017Z,22.07
2023-04-15T00:33:47.899Z,22.05
2023-04-15T00:36:14.625Z,22.03
2023-04-15T00:38:41.408Z,22.04
2023-04-15T00:41:09.056Z,22.04
2023-04-15T00:43:35.710Z,22.03
2023-04-15T00:46:04.885Z,22.03
2023-04-15T00:48:32.348Z,22.01
2023-04-15T00:50:59.181Z,22.00
2023-04-15T00:53:25.804Z,22.00
2023-04-15T00:55:52.842Z,22.00
2023-04-15T00:58:19.484Z,22.00
2023-04-15T01:00:46.719Z,22.00
2023-04-15T01:03:14.111Z,21.96
2023-04-15T01:05:41.654Z,21.97
2023-04-15T01:08:08.253Z,21.97
2023-04-15T01:10:36.009Z,21.96
2023-04-15T01:13:03.500Z,21.95
2023-04-15T01:15:30.766Z,21.94
2023-04-15T01:17:59.293Z,21.95
2023-04-15T01:20:26.199Z,21.93
2023-04-15T01:22:54.542Z,21.92
2023-04-15T01:25:32.885Z,21.93
2023-04-15T01:27:59.727Z,21.92
2023-04-15T01:30:27.169Z,21.91
2023-04-15T01:32:53.935Z,21.90
2023-04-15T01:35:21.556Z,21.89
2023-04-15T01:37:48.623Z,21.89
2023-04-15T01:40:15.464Z,21.89
2023-04-15T01:42:42.009Z,21.89
2023-04-15T01:45:09.271Z,21.87
2023-04-15T01:47:35.805Z,21.87
2023-04-15T01:50:02.320Z,21.86
2023-04-15T01:52:28.845Z,21.86
2023-04-15T01:54:55.298Z,21.85
2023-04-15T01:57:22.019Z,21.86
2023-04-15T01:59:48.471Z,21.85
2023-04-15T02:02:15.518Z,21.84
2023-04-15T02:04:42.035Z,21.84
2023-04-15T02:07:08.613Z,21.82
2023-04-15T02:09:35.101Z,21.83
2023-04-15T02:12:01.874Z,21.82
2023-04-15T02:14:28.332Z,21.83
2023-04-15T02:16:54.882Z,21.81
2023-04-15T02:19:21.435Z,21.81
2023-04-15T02:21:47.955Z,21.81
2023-04-15T02:24:14.420Z,21.80
2023-04-15T02:26:41.085Z,21.79
2023-04-15T02:29:07.729Z,21.79
2023-04-15T02:31:37.077Z,21.78
2023-04-15T02:34:04.424Z,21.79
2023-04-15T02:36:31.901Z,21.79
2023-04-15T02:38:58.669Z,21.78
2023-04-15T02:41:27.916Z,21.77
2023-04-15T02:43:54.814Z,21.77
2023-04-15T02:46:22.864Z,21.78
2023-04-15T02:48:50.111Z,21.75
2023-04-15T02:51:20.000Z,21.76
2023-04-15T02:53:49.518Z,21.75
2023-04-15T02:56:17.310Z,21.75
2023-04-15T02:58:45.784Z,21.75
2023-04-15T03:01:12.632Z,21.73
2023-04-15T03:03:39.229Z,21.72
2023-04-15T03:06:06.122Z,21.73
2023-04-15T03:08:33.995Z,21.71
2023-04-15T03:11:00.918Z,21.70
2023-04-15T03:13:27.514Z,21.71
2023-04-15T03:15:54.528Z,21.70
2023-04-15T03:18:21.530Z,21.69
2023-04-15T03:20:47.962Z,21.69
2023-04-15T03:23:14.468Z,21.70
2023-04-15T03:25:41.026Z,21.69
2023-04-15T03:28:07.531Z,21.69
2023-04-15T03:30:34.110Z,21.68
2023-04-15T03:33:00.599Z,21.66
2023-04-15T03:35:27.073Z,21.66
2023-04-15T03:37:53.553Z,21.66
2023-04-15T03:40:21.466Z,21.67
2023-04-15T03:42:47.962Z,21.66
2023-04-15T03:45:14.591Z,21.66
2023-04-15T03:47:41.180Z,21.65
2023-04-15T03:50:08.519Z,21.64
2023-04-15T03:52:35.019Z,21.64
2023-04-15T03:55:01.663Z,21.64
2023-04-15T03:57:28.092Z,21.64
2023-04-15T03:59:54.643Z,21.62
2023-04-15T04:02:21.643Z,21.62
2023-04-15T04:04:48.387Z,21.63
2023-04-15T04:07:16.653Z,21.63
2023-04-15T04:09:43.209Z,21.64
2023-04-15T04:12:09.693Z,21.63
2023-04-15T04:14:36.192Z,21.65
2023-04-15T04:17:02.723Z,21.68
2023-04-15T04:19:30.127Z,21.70
2023-04-15T04:21:56.600Z,21.72
2023-04-15T04:24:23.121Z,21.75
2023-04-15T04:26:49.565Z,21.79
2023-04-15T04:29:16.330Z,21.80
2023-04-15T04:31:43.198Z,21.82
2023-04-15T04:34:09.729Z,21.83
2023-04-15T04:36:36.605Z,21.83
2023-04-15T04:39:03.428Z,21.85
2023-04-15T04:41:30.271Z,21.86
2023-04-15T04:43:56.711Z,21.85
2023-04-15T04:46:23.869Z,21.86
2023-04-15T04:48:50.496Z,21.85
2023-04-15T04:51:17.051Z,21.85
2023-04-15T04:53:43.527Z,21.86
2023-04-15T04:56:10.031Z,21.86
2023-04-15T04:58:36.687Z,21.85
2023-04-15T05:01:03.496Z,21.85
2023-04-15T05:03:30.183Z,21.85
2023-04-15T05:05:56.976Z,21.85
2023-04-15T05:08:23.539Z,21.85
2023-04-15T05:10:50.089Z,21.86
2023-04-15T05:13:16.618Z,21.90
2023-04-15T05:15:43.354Z,21.94
2023-04-15T05:18:10.109Z,21.97
2023-04-15T05:20:36.735Z,21.98
2023-04-15T05:23:03.288Z,21.99
2023-04-15T05:25:30.002Z,22.00
2023-04-15T05:27:56.514Z,22.00
2023-04-15T05:30:23.048Z,22.00
2023-04-15T05:32:50.194Z,22.01
2023-04-15T05:35:17.546Z,22.00
2023-04-15T05:37:44.027Z,22.01
2023-04-15T05:40:11.411Z,22.01
2023-04-15T05:42:38.173Z,22.02
2023-04-15T05:45:09.033Z,22.03
2023-04-15T05:47:37.525Z,22.00
2023-04-15T05:50:05.185Z,22.00
2023-04-15T05:52:32.029Z,22.01
2023-04-15T05:54:58.545Z,22.01
2023-04-15T05:57:25.119Z,22.02
2023-04-15T05:59:52.829Z,22.01
2023-04-15T06:02:19.405Z,22.01
2023-04-15T06:04:45.991Z,22.00
2023-04-15T06:07:12.500Z,22.01
2023-04-15T06:09:39.006Z,21.98
2023-04-15T06:12:06.885Z,22.00
2023-04-15T06:14:33.421Z,21.99
2023-04-15T06:17:00.019Z,21.99
2023-04-15T06:19:26.495Z,22.00
2023-04-15T06:21:52.979Z,22.00
2023-04-15T06:24:19.527Z,22.00
2023-04-15T06:26:46.037Z,22.00
2023-04-15T06:29:12.521Z,21.98
2023-04-15T06:31:39.004Z,21.99
2023-04-15T06:34:05.663Z,21.99
2023-04-15T06:36:32.628Z,21.99
2023-04-15T06:38:59.308Z,21.99
2023-04-15T06:41:26.018Z,21.98
2023-04-15T06:43:52.643Z,21.99
2023-04-15T06:46:19.241Z,21.98
2023-04-15T06:48:45.726Z,21.98
2023-04-15T06:51:12.672Z,21.98
2023-04-15T06:53:41.159Z,21.97
2023-04-15T06:56:09.641Z,21.99
2023-04-15T06:58:36.457Z,21.98
2023-04-15T07:01:03.565Z,21.98
2023-04-15T07:03:32.566Z,21.98
2023-04-15T07:05:59.745Z,21.98
2023-04-15T07:08:26.476Z,21.98
2023-04-15T07:10:54.181Z,21.99
2023-04-15T07:13:20.718Z,21.97
2023-04-15T07:15:47.185Z,21.98
2023-04-15T07:18:14.026Z,22.01
2023-04-15T07:20:40.565Z,22.05
2023-04-15T07:23:07.077Z,22.05
2023-04-15T07:25:33.714Z,22.05
2023-04-15T07:28:00.359Z,22.04
2023-04-15T07:30:26.847Z,22.05
2023-04-15T07:32:53.548Z,22.06
2023-04-15T07:35:21.436Z,22.06
2023-04-15T07:37:48.591Z,22.04
2023-04-15T07:40:16.173Z,22.06
2023-04-15T07:42:43.564Z,22.05
2023-04-15T07:45:10.581Z,22.05
2023-04-15T07:47:37.238Z,22.05
2023-04-15T07:50:04.107Z,22.05
2023-04-15T07:52:30.695Z,22.04
2023-04-15T07:54:57.255Z,22.05
2023-04-15T07:57:23.830Z,22.04
2023-04-15T07:59:50.689Z,22.03
2023-04-15T08:02:17.553Z,22.02
2023-04-15T08:04:44.312Z,22.03
2023-04-15T08:07:11.107Z,22.02
2023-04-15T08:09:37.689Z,22.01
2023-04-15T08:12:04.506Z,22.00
2023-04-15T08:14:31.100Z,22.01
2023-04-15T08:16:57.634Z,21.99
2023-04-15T08:19:24.342Z,21.99
2023-04-15T08:21:52.076Z,21.99
2023-04-15T08:24:18.820Z,21.99
2023-04-15T08:26:46.966Z,22.00
2023-04-15T08:29:13.875Z,21.98
2023-04-15T08:31:40.635Z,21.99
2023-04-15T08:34:07.214Z,22.00
2023-04-15T08:36:33.753Z,21.98
2023-04-15T08:39:02.244Z,21.98
2023-04-15T08:41:40.973Z,21.98
2023-04-15T08:44:07.537Z,21.98
2023-04-15T08:46:37.396Z,21.97
2023-04-15T08:49:05.310Z,21.97
2023-04-15T08:51:33.689Z,21.97
2023-04-15T08:54:01.534Z,21.98
2023-04-15T08:56:30.929Z,21.98
2023-04-15T08:58:58.070Z,21.97
2023-04-15T09:01:25.578Z,21.97
2023-04-15T09:03:54.694Z,21.97
2023-04-15T09:06:22.411Z,21.98
2023-04-15T09:08:50.414Z,21.97
2023-04-15T09:11:19.996Z,21.97
2023-04-15T09:13:46.871Z,21.97
2023-04-15T09:16:14.378Z,21.96
2023-04-15T09:18:41.488Z,21.98
2023-04-15T09:21:15.971Z,21.97
2023-04-15T09:24:01.890Z,21.98
2023-04-15T09:26:36.596Z,21.98
2023-04-15T09:29:13.861Z,21.97
2023-04-15T09:31:41.723Z,21.97
2023-04-15T09:34:08.600Z,21.97
2023-04-15T09:36:55.136Z,21.97
2023-04-15T09:39:21.699Z,21.97
2023-04-15T09:42:05.227Z,21.98
2023-04-15T09:44:31.767Z,21.97
2023-04-15T09:46:58.305Z,21.98
2023-04-15T09:49:24.791Z,21.98
2023-04-15T09:52:04.109Z,21.98
2023-04-15T09:54:38.907Z,21.99
2023-04-15T09:57:07.260Z,21.98
2023-04-15T09:59:33.993Z,22.00
2023-04-15T10:02:01.080Z,22.00
2023-04-15T10:04:28.745Z,21.99
2023-04-15T10:06:56.282Z,22.00
2023-04-15T10:09:22.948Z,22.00
2023-04-15T10:11:50.311Z,22.01
2023-04-15T10:14:18.359Z,22.02
2023-04-15T10:16:49.032Z,22.03
2023-04-15T10:19:18.996Z,22.03
2023-04-15T10:21:46.131Z,22.04
2023-04-15T10:24:13.286Z,22.04
2023-04-15T10:26:40.285Z,22.05
2023-04-15T10:29:07.141Z,22.07
2023-04-15T10:31:34.150Z,22.09
2023-04-15T10:34:05.231Z,22.11
2023-04-15T10:36:32.592Z,22.13
2023-04-15T10:38:59.202Z,22.15
2023-04-15T10:41:29.888Z,22.18
2023-04-15T10:44:01.161Z,22.19
2023-04-15T10:46:40.377Z,22.21
2023-04-15T10:49:16.709Z,22.21
2023-04-15T10:51:51.254Z,22.22
2023-04-15T10:54:26.653Z,22.25
2023-04-15T10:57:09.094Z,22.25
2023-04-15T11:00:01.929Z,22.27
2023-04-15T11:02:57.204Z,22.27
2023-04-15T11:05:42.029Z,22.28
2023-04-15T11:08:09.866Z,22.27
2023-04-15T11:10:36.375Z,22.30
2023-04-15T11:13:05.525Z,22.31
2023-04-15T11:15:37.905Z,22.33
2023-04-15T11:18:10.584Z,22.33
2023-04-15T11:20:38.730Z,22.34
2023-04-15T11:23:13.419Z,22.37
2023-04-15T11:25:41.980Z,22.38
2023-04-15T11:28:08.717Z,22.41
2023-04-15T11:30:37.463Z,22.41
2023-04-15T11:33:06.929Z,22.43
2023-04-15T11:35:33.626Z,22.44
2023-04-15T11:38:11.910Z,22.45
2023-04-15T11:40:38.975Z,22.46
2023-04-15T11:43:11.390Z,22.47
2023-04-15T11:45:48.144Z,22.49
2023-04-15T11:48:14.782Z,22.49
2023-04-15T11:50:41.617Z,22.51
2023-04-15T11:53:11.866Z,22.52
2023-04-15T11:55:49.379Z,22.54
2023-04-15T11:58:22.428Z,22.56
2023-04-15T12:00:54.354Z,22.58
2023-04-15T12:03:29.348Z,22.59
2023-04-15T12:06:12.712Z,22.60
2023-04-15T12:09:07.203Z,22.61
2023-04-15T12:11:36.877Z,22.60
2023-04-15T12:14:26.040Z,22.61
2023-04-15T12:16:55.052Z,22.61
2023-04-15T12:19:27.422Z,22.62
2023-04-15T12:22:00.413Z,22.65
2023-04-15T12:24:27.485Z,22.63
2023-04-15T12:26:57.780Z,22.64
2023-04-15T12:29:29.053Z,22.67
2023-04-15T12:32:05.089Z,22.68
2023-04-15T12:34:33.561Z,22.70
2023-04-15T12:37:02.147Z,22.71
2023-04-15T12:39:32.783Z,22.73
2023-04-15T12:42:00.436Z,22.74
2023-04-15T12:44:28.025Z,22.76
2023-04-15T12:46:55.015Z,22.79
2023-04-15T12:49:22.377Z,22.77
2023-04-15T12:51:49.573Z,22.79
2023-04-15T12:54:17.634Z,22.82
2023-04-15T12:56:48.707Z,22.84
2023-04-15T12:59:17.875Z,22.86
2023-04-15T13:01:45.351Z,22.87
2023-04-15T13:04:12.005Z,22.90
2023-04-15T13:06:38.715Z,22.92
2023-04-15T13:09:06.119Z,22.95
2023-04-15T13:11:36.639Z,22.95
2023-04-15T13:14:08.763Z,22.97
2023-04-15T13:16:35.573Z,22.98
2023-04-15T13:19:03.698Z,22.99
2023-04-15T13:21:34.839Z,23.02
2023-04-15T13:24:01.786Z,23.03
2023-04-15T13:26:28.289Z,23.05
2023-04-15T13:28:54.791Z,23.05
2023-04-15T13:31:21.406Z,23.07
2023-04-15T13:33:48.067Z,23.09
2023-04-15T13:36:14.666Z,23.11
2023-04-15T13:38:41.411Z,23.13
2023-04-15T13:41:07.931Z,23.13
2023-04-15T13:43:34.536Z,23.15
2023-04-15T13:46:01.371Z,23.17
2023-04-15T13:48:28.850Z,23.18
2023-04-15T13:50:55.385Z,23.22
2023-04-15T13:53:21.907Z,23.22
2023-04-15T13:56:04.696Z,23.27
2023-04-15T13:58:31.388Z,23.27
2023-04-15T14:00:58.099Z,23.29
2023-04-15T14:03:24.845Z,23.30
2023-04-15T14:05:55.924Z,23.33
2023-04-15T14:08:23.043Z,23.34
2023-04-15T14:10:49.818Z,23.36
2023-04-15T14:13:16.503Z,23.37
2023-04-15T14:15:43.033Z,23.39
2023-04-15T14:18:09.884Z,23.41
2023-04-15T14:20:36.626Z,23.41
2023-04-15T14:23:03.143Z,23.42
2023-04-15T14:25:33.716Z,23.43
2023-04-15T14:28:01.303Z,23.45
2023-04-15T14:30:27.840Z,23.46
2023-04-15T14:32:54.481Z,23.48
2023-04-15T14:35:21.205Z,23.49
2023-04-15T14:37:47.688Z,23.50
2023-04-15T14:40:14.188Z,23.52
2023-04-15T14:42:40.679Z,23.54
2023-04-15T14:45:07.741Z,23.55
2023-04-15T14:47:34.367Z,23.57
2023-04-15T14:50:00.910Z,23.58
2023-04-15T14:52:27.476Z,23.59
2023-04-15T14:54:54.015Z,23.60
2023-04-15T14:57:20.604Z,23.61
2023-04-15T14:59:47.131Z,23.63
2023-04-15T15:02:17.257Z,23.65
2023-04-15T15:04:53.046Z,23.67
2023-04-15T15:07:19.752Z,23.69
2023-04-15T15:09:46.261Z,23.68
2023-04-15T15:12:12.852Z,23.71
2023-04-15T15:14:39.308Z,23.73
2023-04-15T15:17:06.134Z,23.72
2023-04-15T15:19:33.085Z,23.75
2023-04-15T15:21:59.635Z,23.75
2023-04-15T15:24:26.194Z,23.76
2023-04-15T15:26:52.745Z,23.77
2023-04-15T15:29:19.279Z,23.77
2023-04-15T15:31:45.877Z,23.77
2023-04-15T15:34:12.552Z,23.79
2023-04-15T15:36:39.135Z,23.81
2023-04-15T15:39:06.105Z,23.84
2023-04-15T15:41:33.368Z,23.85
2023-04-15T15:44:00.134Z,23.87
2023-04-15T15:46:28.109Z,23.88
2023-04-15T15:48:55.332Z,23.88
2023-04-15T15:51:21.895Z,23.88
2023-04-15T15:53:48.392Z,23.88
2023-04-15T15:56:15.257Z,23.91
2023-04-15T15:58:45.017Z,23.91
2023-04-15T16:01:11.944Z,23.93
2023-04-15T16:03:39.144Z,23.93
2023-04-15T16:06:05.789Z,23.93
2023-04-15T16:08:32.530Z,23.95
2023-04-15T16:10:59.216Z,23.94
2023-04-15T16:13:26.383Z,23.93
2023-04-15T16:15:53.141Z,23.93
2023-04-15T16:18:19.687Z,23.93
2023-04-15T16:20:46.210Z,23.92
2023-04-15T16:23:15.952Z,23.95
2023-04-15T16:25:44.414Z,23.94
2023-04-15T16:28:25.087Z,23.96
2023-04-15T16:30:53.555Z,23.95
2023-04-15T16:33:20.157Z,23.97
2023-04-15T16:35:46.649Z,23.96
2023-04-15T16:38:13.170Z,23.96
2023-04-15T16:40:39.691Z,23.97
2023-04-15T16:43:11.222Z,23.96
2023-04-15T16:45:38.003Z,23.97
2023-04-15T16:48:04.825Z,23.97
2023-04-15T16:50:31.603Z,23.98
2023-04-15T16:52:58.093Z,23.98
2023-04-15T16:55:24.697Z,23.96
2023-04-15T16:58:01.836Z,23.98
2023-04-15T17:00:31.318Z,23.98
2023-04-15T17:02:58.392Z,23.97
2023-04-15T17:05:25.139Z,23.95
2023-04-15T17:07:51.779Z,23.94
2023-04-15T17:10:18.276Z,23.95
2023-04-15T17:12:44.918Z,23.94
2023-04-15T17:15:11.466Z,23.93
2023-04-15T17:17:38.069Z,23.93
2023-04-15T17:20:05.333Z,23.93
2023-04-15T17:22:32.149Z,23.94
2023-04-15T17:24:58.869Z,23.92
2023-04-15T17:27:27.577Z,23.91
2023-04-15T17:29:54.593Z,23.91
2023-04-15T17:32:22.632Z,23.91
2023-04-15T17:34:51.374Z,23.91
2023-04-15T17:37:18.616Z,23.91
2023-04-15T17:39:45.349Z,23.90
2023-04-15T17:42:12.118Z,23.88
2023-04-15T17:44:38.894Z,23.87
2023-04-15T17:47:05.892Z,23.87
2023-04-15T17:49:34.181Z,23.85
2023-04-15T17:52:01.262Z,23.85
2023-04-15T17:54:27.928Z,23.85
2023-04-15T17:56:54.507Z,23.86
2023-04-15T17:59:21.213Z,23.84
2023-04-15T18:01:47.870Z,23.83
2023-04-15T18:04:14.750Z,23.82
2023-04-15T18:06:41.544Z,23.79
2023-04-15T18:09:11.461Z,23.80
2023-04-15T18:11:40.046Z,23.80
2023-04-15T18:14:06.710Z,23.79
2023-04-15T18:16:33.566Z,23.78
2023-04-15T18:19:00.208Z,23.76
2023-04-15T18:21:27.160Z,23.77
2023-04-15T18:23:53.721Z,23.73
2023-04-15T18:26:21.673Z,23.71
2023-04-15T18:28:48.278Z,23.70
2023-04-15T18:31:14.861Z,23.69
2023-04-15T18:33:41.477Z,23.68
2023-04-15T18:36:08.046Z,23.70
2023-04-15T18:38:34.614Z,23.65
2023-04-15T18:41:01.329Z,23.63
2023-04-15T18:43:27.970Z,23.60
2023-04-15T18:45:54.953Z,23.58
2023-04-15T18:48:21.693Z,23.58
2023-04-15T18:50:49.040Z,23.58
2023-04-15T18:53:15.562Z,23.57
2023-04-15T18:55:42.078Z,23.56
2023-04-15T18:58:09.364Z,23.55
2023-04-15T19:00:40.288Z,23.54
2023-04-15T19:03:07.691Z,23.53
2023-04-15T19:05:34.254Z,23.54
2023-04-15T19:08:00.938Z,23.49
2023-04-15T19:10:28.195Z,23.49
2023-04-15T19:12:55.408Z,23.48
2023-04-15T19:15:22.090Z,23.46
2023-04-15T19:17:48.912Z,23.47
2023-04-15T19:20:15.538Z,23.47
2023-04-15T19:22:43.136Z,23.45
2023-04-15T19:25:10.104Z,23.44
2023-04-15T19:27:38.230Z,23.44
2023-04-15T19:30:06.579Z,23.45
2023-04-15T19:32:33.398Z,23.46
2023-04-15T19:34:59.895Z,23.44
2023-04-15T19:37:26.421Z,23.43
2023-04-15T19:39:54.700Z,23.42
2023-04-15T19:42:21.424Z,23.40
2023-04-15T19:44:47.935Z,23.40
2023-04-15T19:47:14.503Z,23.40
2023-04-15T19:49:41.088Z,23.40
2023-04-15T19:52:07.614Z,23.37
2023-04-15T19:54:34.151Z,23.34
2023-04-15T19:57:02.058Z,23.34
2023-04-15T19:59:28.692Z,23.31
2023-04-15T20:01:55.326Z,23.32
2023-04-15T20:04:22.747Z,23.31
2023-04-15T20:06:49.769Z,23.31
2023-04-15T20:09:16.824Z,23.31
2023-04-15T20:12:06.170Z,23.29
2023-04-15T20:14:29.908Z,23.34
2023-04-15T20:16:56.517Z,23.34
2023-04-15T20:19:23.193Z,23.32
2023-04-15T20:21:51.347Z,23.25
2023-04-15T20:24:20.252Z,23.24
2023-04-15T20:26:47.397Z,23.25
2023-04-15T20:29:13.979Z,23.22
2023-04-15T20:31:40.834Z,23.18
2023-04-15T20:34:08.827Z,23.19
2023-04-15T20:36:37.374Z,23.18
2023-04-15T20:39:04.258Z,23.15
2023-04-15T20:41:31.001Z,23.15
2023-04-15T20:43:57.582Z,23.14
2023-04-15T20:46:26.570Z,23.12
2023-04-15T20:48:53.341Z,23.11
2023-04-15T20:51:19.851Z,23.11
2023-04-15T20:53:46.641Z,23.10
2023-04-15T20:56:13.093Z,23.10
2023-04-15T20:58:39.859Z,23.07
2023-04-15T21:01:06.683Z,23.07
2023-04-15T21:03:33.603Z,23.06
2023-04-15T21:06:00.329Z,23.05
2023-04-15T21:08:29.672Z,23.04
2023-04-15T21:10:56.936Z,23.03
2023-04-15T21:13:24.009Z,23.03
2023-04-15T21:15:53.394Z,23.05
2023-04-15T21:18:21.594Z,22.98
2023-04-15T21:21:02.284Z,22.98
2023-04-15T21:23:35.809Z,22.96
2023-04-15T21:26:02.491Z,22.97
2023-04-15T21:28:29.849Z,22.97
2023-04-15T21:30:59.607Z,22.94
2023-04-15T21:33:26.249Z,22.95
2023-04-15T21:35:53.985Z,22.95
2023-04-15T21:38:22.738Z,22.93
2023-04-15T21:40:50.654Z,22.92
2023-04-15T21:43:17.130Z,22.94
2023-04-15T21:46:22.563Z,22.91
2023-04-15T21:48:31.657Z,22.89
2023-04-15T21:50:59.778Z,22.87
2023-04-15T21:53:26.406Z,22.88
2023-04-15T21:55:52.983Z,22.87
2023-04-15T21:58:19.595Z,22.87
2023-04-15T22:00:46.220Z,22.86
2023-04-15T22:03:12.856Z,22.86
2023-04-15T22:05:39.436Z,22.84
2023-04-15T22:08:05.972Z,22.84
2023-04-15T22:10:32.558Z,22.83
2023-04-15T22:13:02.472Z,22.82
2023-04-15T22:15:29.181Z,22.82
2023-04-15T22:17:55.693Z,22.81
2023-04-15T22:20:22.256Z,22.79
2023-04-15T22:22:48.842Z,22.79
2023-04-15T22:25:20.980Z,22.77
2023-04-15T22:27:47.478Z,22.77
2023-04-15T22:30:14.030Z,22.74
2023-04-15T22:32:40.811Z,22.74
2023-04-15T22:35:07.781Z,22.74
2023-04-15T22:37:34.283Z,22.72
2023-04-15T22:40:01.964Z,22.71
2023-04-15T22:42:28.504Z,22.71
2023-04-15T22:44:54.984Z,22.72
2023-04-15T22:47:21.471Z,22.70
2023-04-15T22:49:47.997Z,22.71
2023-04-15T22:52:23.366Z,22.69
2023-04-15T22:54:56.417Z,22.68
2023-04-15T22:57:22.933Z,22.67
2023-04-15T22:59:49.546Z,22.67
2023-04-15T23:02:16.361Z,22.67
2023-04-15T23:04:43.018Z,22.67
2023-04-15T23:07:09.632Z,22.66
2023-04-15T23:09:36.098Z,22.65
2023-04-15T23:12:03.027Z,22.64
2023-04-15T23:14:30.152Z,22.63
2023-04-15T23:16:57.726Z,22.64
2023-04-15T23:19:24.888Z,22.63
2023-04-15T23:21:51.490Z,22.62
2023-04-15T23:24:17.996Z,22.62
2023-04-15T23:26:44.535Z,22.61
2023-04-15T23:29:11.290Z,22.60
2023-04-15T23:31:38.014Z,22.62
2023-04-15T23:34:04.645Z,22.60
2023-04-15T23:36:31.973Z,22.60
2023-04-15T23:38:58.643Z,22.59
2023-04-15T23:41:25.185Z,22.58
2023-04-15T23:43:51.773Z,22.57
2023-04-15T23:46:18.402Z,22.57
2023-04-15T23:48:44.876Z,22.57
2023-04-15T23:51:11.353Z,22.57
2023-04-15T23:53:37.803Z,22.56
2023-04-15T23:56:04.591Z,22.53
2023-04-15T23:58:32.897Z,22.54
